createdAt,value
2023-02-06T00:00:32.300Z,7.22
2023-02-06T00:06:31.009Z,5.95
2023-02-06T00:09:42.924Z,6.65
2023-02-06T00:12:39.689Z,6.53
2023-02-06T00:15:11.059Z,6.32
2023-02-06T00:17:53.857Z,5.97
2023-02-06T00:20:35.853Z,8.13
2023-02-06T00:23:24.558Z,7.07
2023-02-06T00:26:33.136Z,7.28
2023-02-06T00:29:15.914Z,6.57
2023-02-06T00:31:53.551Z,6.65
2023-02-06T00:34:24.820Z,6.68
2023-02-06T00:36:56.710Z,7.78
2023-02-06T00:40:15.870Z,6.57
2023-02-06T00:42:58.812Z,6.07
2023-02-06T00:49:20.126Z,6.32
2023-02-06T00:51:51.354Z,6.75
2023-02-06T00:54:35.495Z,7.28
2023-02-06T00:57:06.712Z,7.38
2023-02-06T00:59:37.900Z,13.60
2023-02-06T01:05:40.110Z,19.38
2023-02-06T01:09:19.844Z,17.17
2023-02-06T01:12:12.081Z,13.02
2023-02-06T01:14:43.014Z,15.82
2023-02-06T01:17:21.050Z,16.05
2023-02-06T01:19:56.795Z,17.35
2023-02-06T01:22:27.798Z,13.48
2023-02-06T01:24:58.747Z,15.68
2023-02-06T01:27:54.242Z,15.32
2023-02-06T01:30:45.229Z,15.48
2023-02-06T01:33:16.035Z,15.02
2023-02-06T01:35:47.595Z,15.73
2023-02-06T01:38:38.466Z,13.50
2023-02-06T01:41:28.577Z,17.17
2023-02-06T01:47:16.933Z,12.65
2023-02-06T01:49:54.138Z,17.42
2023-02-06T01:52:55.800Z,15.77
2023-02-06T01:56:09.336Z,18.80
2023-02-06T01:58:44.685Z,14.88
2023-02-06T02:08:06.790Z,14.52
2023-02-06T02:11:04.677Z,15.27
2023-02-06T02:14:00.209Z,14.50
2023-02-06T02:20:18.791Z,14.95
2023-02-06T02:23:16.809Z,12.02
2023-02-06T02:26:47.238Z,11.75
2023-02-06T02:30:05.022Z,13.27
2023-02-06T02:32:55.778Z,11.70
2023-02-06T02:35:47.421Z,10.95
2023-02-06T02:38:48.528Z,12.10
2023-02-06T02:41:26.951Z,11.50
2023-02-06T02:44:34.379Z,13.85
2023-02-06T02:47:28.905Z,12.15
2023-02-06T02:50:02.295Z,12.45
2023-02-06T02:52:32.970Z,11.25
2023-02-06T02:55:18.118Z,11.15
2023-02-06T02:57:55.550Z,14.95
2023-02-06T03:00:51.413Z,10.98
2023-02-06T03:03:33.780Z,11.30
2023-02-06T03:06:13.340Z,10.55
2023-02-06T03:09:02.173Z,10.23
2023-02-06T03:11:33.567Z,11.98
2023-02-06T03:14:29.407Z,10.40
2023-02-06T03:17:17.663Z,10.15
2023-02-06T03:20:08.677Z,9.85
2023-02-06T03:22:42.464Z,10.05
2023-02-06T03:25:19.137Z,12.82
2023-02-06T03:27:52.338Z,8.93
2023-02-06T03:30:27.718Z,10.37
2023-02-06T03:33:14.280Z,9.88
2023-02-06T03:35:45.663Z,9.93
2023-02-06T03:38:18.667Z,13.57
2023-02-06T03:40:51.825Z,11.40
2023-02-06T03:43:40.833Z,10.77
2023-02-06T03:46:15.203Z,10.38
2023-02-06T03:48:51.197Z,12.98
2023-02-06T03:51:46.332Z,9.52
2023-02-06T03:54:28.862Z,10.65
2023-02-06T03:57:20.958Z,11.05
2023-02-06T03:59:53.392Z,8.00
2023-02-06T04:02:29.079Z,10.60
2023-02-06T04:08:29.627Z,9.13
2023-02-06T04:11:32.208Z,9.80
2023-02-06T04:14:02.979Z,10.32
2023-02-06T04:16:33.785Z,10.18
2023-02-06T04:20:05.937Z,10.85
2023-02-06T04:22:45.590Z,10.35
2023-02-06T04:25:16.690Z,10.27
2023-02-06T04:27:47.873Z,9.70
2023-02-06T04:30:47.195Z,8.77
2023-02-06T04:33:44.955Z,8.82
2023-02-06T04:36:21.534Z,10.05
2023-02-06T04:38:52.389Z,9.63
2023-02-06T04:41:29.500Z,11.55
2023-02-06T04:44:03.449Z,9.63
2023-02-06T04:46:46.662Z,9.93
2023-02-06T04:49:17.763Z,8.23
2023-02-06T04:52:08.244Z,7.97
2023-02-06T04:54:39.396Z,8.35
2023-02-06T04:57:24.391Z,10.60
2023-02-06T05:00:13.009Z,11.10
2023-02-06T05:02:43.933Z,10.02
2023-02-06T05:05:18.184Z,8.50
2023-02-06T05:07:50.429Z,10.70
2023-02-06T05:10:21.698Z,9.15
2023-02-06T05:12:53.135Z,10.77
2023-02-06T05:18:08.700Z,10.38
2023-02-06T05:20:39.814Z,7.32
2023-02-06T05:23:11.448Z,8.40
2023-02-06T05:25:42.842Z,9.75
2023-02-06T05:28:14.225Z,8.60
2023-02-06T05:30:45.908Z,12.55
2023-02-06T05:33:17.138Z,8.75
2023-02-06T05:35:48.414Z,24.00
2023-02-06T05:38:19.781Z,25.98
2023-02-06T05:40:56.890Z,26.80
2023-02-06T05:43:30.742Z,23.92
2023-02-06T05:46:01.861Z,23.65
2023-02-06T05:48:34.513Z,25.67
2023-02-06T05:51:08.281Z,22.48
2023-02-06T05:54:02.879Z,20.48
2023-02-06T05:56:56.933Z,20.90
2023-02-06T05:59:28.238Z,20.80
2023-02-06T06:02:01.077Z,20.92
2023-02-06T06:04:32.440Z,21.38
2023-02-06T06:07:03.677Z,22.08
2023-02-06T06:09:34.792Z,18.58
2023-02-06T06:12:06.054Z,17.63
2023-02-06T06:14:37.507Z,20.08
2023-02-06T06:17:09.344Z,20.38
2023-02-06T06:20:00.345Z,18.17
2023-02-06T06:22:31.609Z,17.33
2023-02-06T06:25:04.878Z,18.48
2023-02-06T06:27:36.424Z,18.63
2023-02-06T06:30:08.052Z,19.40
2023-02-06T06:33:16.801Z,16.73
2023-02-06T06:35:47.797Z,16.10
2023-02-06T06:39:12.563Z,17.95
2023-02-06T06:41:58.520Z,14.30
2023-02-06T06:44:31.361Z,14.20
2023-02-06T06:47:20.321Z,17.30
2023-02-06T06:49:54.769Z,15.07
2023-02-06T06:52:26.159Z,15.55
2023-02-06T06:55:09.095Z,15.10
2023-02-06T06:57:40.417Z,15.82
2023-02-06T07:00:12.999Z,15.10
2023-02-06T07:02:51.277Z,14.38
2023-02-06T07:05:24.535Z,13.68
2023-02-06T07:07:55.979Z,14.50
2023-02-06T07:10:27.664Z,15.52
2023-02-06T07:12:58.878Z,14.20
2023-02-06T07:15:29.933Z,12.90
2023-02-06T07:18:19.132Z,14.23
2023-02-06T07:21:12.485Z,14.20
2023-02-06T07:23:44.062Z,11.32
2023-02-06T07:26:14.912Z,13.93
2023-02-06T07:31:52.205Z,12.60
2023-02-06T07:34:23.387Z,12.02
2023-02-06T07:37:01.353Z,13.32
2023-02-06T07:39:56.539Z,15.00
2023-02-06T07:45:30.565Z,12.00
2023-02-06T07:48:25.725Z,14.35
2023-02-06T07:50:57.475Z,10.25
2023-02-06T07:53:48.332Z,11.52
2023-02-06T07:56:23.381Z,11.98
2023-02-06T07:58:57.464Z,13.13
2023-02-06T08:01:28.733Z,13.15
2023-02-06T08:04:00.160Z,10.95
2023-02-06T08:06:31.527Z,11.98
2023-02-06T08:09:22.427Z,11.48
2023-02-06T08:11:53.790Z,12.95
2023-02-06T08:14:25.366Z,12.30
2023-02-06T08:17:19.722Z,10.63
2023-02-06T08:19:51.583Z,10.85
2023-02-06T08:22:22.889Z,13.57
2023-02-06T08:24:56.994Z,8.70
2023-02-06T08:30:15.513Z,13.43
2023-02-06T08:33:03.923Z,11.20
2023-02-06T08:36:00.396Z,11.55
2023-02-06T08:38:36.474Z,12.05
2023-02-06T08:41:15.674Z,9.45
2023-02-06T08:43:51.575Z,9.68
2023-02-06T08:46:24.041Z,10.45
2023-02-06T08:49:19.329Z,10.27
2023-02-06T08:51:52.087Z,10.55
2023-02-06T08:54:25.547Z,9.90
2023-02-06T08:56:58.581Z,10.75
2023-02-06T08:59:33.068Z,8.80
2023-02-06T09:02:05.355Z,10.45
2023-02-06T09:07:24.282Z,9.70
2023-02-06T09:09:55.273Z,8.93
2023-02-06T09:12:32.497Z,11.05
2023-02-06T09:15:07.730Z,11.60
2023-02-06T09:17:42.255Z,10.23
2023-02-06T09:20:13.785Z,10.05
2023-02-06T09:28:15.153Z,9.20
2023-02-06T09:31:10.477Z,9.38
2023-02-06T09:37:21.578Z,11.40
2023-02-06T09:40:17.601Z,9.55
2023-02-06T09:45:37.854Z,10.75
2023-02-06T09:48:24.942Z,9.90
2023-02-06T09:51:20.712Z,8.90
2023-02-06T09:54:11.084Z,11.20
2023-02-06T09:57:14.846Z,11.10
2023-02-06T10:00:38.466Z,8.57
2023-02-06T10:03:32.281Z,9.73
2023-02-06T10:06:18.625Z,8.87
2023-02-06T10:08:59.575Z,11.48
2023-02-06T10:11:52.226Z,13.07
2023-02-06T10:14:26.608Z,12.00
2023-02-06T10:17:30.613Z,11.75
2023-02-06T10:20:35.234Z,12.70
2023-02-06T10:23:31.713Z,11.48
2023-02-06T10:26:20.970Z,10.80
2023-02-06T10:28:55.827Z,10.70
2023-02-06T10:31:41.127Z,9.73
2023-02-06T10:34:30.321Z,10.75
2023-02-06T10:37:01.629Z,9.70
2023-02-06T10:39:41.958Z,11.00
2023-02-06T10:42:31.524Z,10.57
2023-02-06T10:45:28.525Z,9.27
2023-02-06T10:48:11.934Z,12.45
2023-02-06T10:50:56.954Z,10.85
2023-02-06T10:53:51.572Z,9.27
2023-02-06T10:56:35.463Z,12.18
2023-02-06T10:59:16.859Z,12.57
2023-02-06T11:01:51.938Z,10.32
2023-02-06T11:04:44.867Z,10.68
2023-02-06T11:07:28.395Z,11.07
2023-02-06T11:09:59.878Z,11.68
2023-02-06T11:15:34.492Z,8.05
2023-02-06T11:18:10.372Z,12.45
2023-02-06T11:20:43.747Z,11.38
2023-02-06T11:23:25.327Z,10.98
2023-02-06T11:29:25.256Z,8.98
2023-02-06T11:32:03.661Z,9.43
2023-02-06T11:34:52.652Z,9.40
2023-02-06T11:37:39.622Z,9.35
2023-02-06T11:40:37.386Z,11.13
2023-02-06T11:43:26.204Z,11.55
2023-02-06T11:46:30.710Z,10.57
2023-02-06T11:49:08.353Z,10.60
2023-02-06T11:52:05.556Z,9.23
2023-02-06T11:57:28.612Z,8.75
2023-02-06T12:00:04.117Z,8.40
2023-02-06T12:02:41.354Z,9.57
2023-02-06T12:05:18.924Z,9.65
2023-02-06T12:07:59.053Z,9.27
2023-02-06T12:10:35.733Z,11.65
2023-02-06T12:13:39.688Z,7.60
2023-02-06T12:19:36.740Z,10.25
2023-02-06T12:22:16.977Z,9.20
2023-02-06T12:24:50.933Z,8.55
2023-02-06T12:27:31.667Z,7.22
2023-02-06T12:30:52.841Z,8.20
2023-02-06T12:33:38.672Z,8.45
2023-02-06T12:36:24.417Z,11.60
2023-02-06T12:39:03.782Z,8.95
2023-02-06T12:41:53.249Z,9.63
2023-02-06T12:45:03.837Z,9.95
2023-02-06T12:47:44.020Z,8.80
2023-02-06T12:50:33.263Z,8.43
2023-02-06T12:53:20.148Z,7.93
2023-02-06T12:58:45.689Z,9.23
2023-02-06T13:01:53.801Z,9.90
2023-02-06T13:04:29.098Z,11.38
2023-02-06T13:07:26.883Z,8.70
2023-02-06T13:10:06.018Z,9.20
2023-02-06T13:12:38.690Z,9.23
2023-02-06T13:15:22.899Z,9.38
2023-02-06T13:17:59.745Z,9.38
2023-02-06T13:20:33.575Z,10.40
2023-02-06T13:23:17.400Z,9.85
2023-02-06T13:25:50.106Z,8.90
2023-02-06T13:28:24.748Z,7.53
2023-02-06T13:31:26.789Z,8.20
2023-02-06T13:34:03.940Z,9.07
2023-02-06T13:36:46.415Z,8.18
2023-02-06T13:39:25.058Z,7.55
2023-02-06T13:41:58.298Z,7.72
2023-02-06T13:44:42.750Z,9.10
2023-02-06T13:47:35.458Z,7.30
2023-02-06T13:54:00.398Z,8.05
2023-02-06T13:56:52.649Z,9.65
2023-02-06T13:59:38.406Z,8.13
2023-02-06T14:02:32.679Z,8.73
2023-02-06T14:05:12.235Z,7.35
2023-02-06T14:08:26.741Z,9.00
2023-02-06T14:11:34.452Z,8.57
2023-02-06T14:14:29.893Z,9.35
2023-02-06T14:17:19.543Z,10.52
2023-02-06T14:20:44.795Z,7.75
2023-02-06T14:23:34.700Z,8.85
2023-02-06T14:26:29.271Z,8.48
2023-02-06T14:30:00.316Z,7.00
2023-02-06T14:33:06.854Z,9.35
2023-02-06T14:36:00.186Z,7.38
2023-02-06T14:39:12.572Z,7.15
2023-02-06T14:41:46.131Z,7.00
2023-02-06T14:44:26.752Z,6.88
2023-02-06T14:47:00.285Z,6.40
2023-02-06T14:49:38.801Z,6.93
2023-02-06T14:52:31.687Z,7.05
2023-02-06T14:57:55.280Z,8.30
2023-02-06T15:00:46.610Z,6.45
2023-02-06T15:03:28.602Z,5.30
2023-02-06T15:06:38.164Z,9.20
2023-02-06T15:09:10.353Z,6.97
2023-02-06T15:11:42.056Z,6.75
2023-02-06T15:14:25.015Z,7.82
2023-02-06T15:17:01.809Z,6.55
2023-02-06T15:19:39.679Z,7.15
2023-02-06T15:22:19.541Z,6.63
2023-02-06T15:27:47.413Z,6.53
2023-02-06T15:30:28.504Z,6.40
2023-02-06T15:32:59.925Z,6.35
2023-02-06T15:35:41.591Z,6.90
2023-02-06T15:38:19.857Z,6.82
2023-02-06T15:41:33.062Z,7.28
2023-02-06T15:44:24.551Z,6.57
2023-02-06T15:47:20.756Z,7.55
2023-02-06T15:49:54.644Z,6.68
2023-02-06T15:52:59.931Z,7.90
2023-02-06T15:55:38.906Z,6.05
2023-02-06T15:58:17.208Z,5.03
2023-02-06T16:01:15.258Z,6.40
2023-02-06T16:03:47.608Z,6.05
2023-02-06T16:06:21.423Z,5.65
2023-02-06T16:08:58.733Z,6.15
2023-02-06T16:11:48.910Z,6.03
2023-02-06T16:14:57.427Z,7.18
2023-02-06T16:17:35.107Z,7.93
2023-02-06T16:20:28.765Z,6.03
2023-02-06T16:23:36.176Z,5.75
2023-02-06T16:26:30.534Z,5.90
2023-02-06T16:29:10.629Z,6.10
2023-02-06T16:32:09.115Z,6.97
2023-02-06T16:34:45.638Z,6.18
2023-02-06T16:37:24.944Z,6.13
2023-02-06T16:40:09.235Z,5.10
2023-02-06T16:42:50.902Z,6.43
2023-02-06T16:45:28.491Z,5.72
2023-02-06T16:47:59.701Z,5.57
2023-02-06T16:50:52.136Z,4.35
2023-02-06T16:53:26.321Z,5.80
2023-02-06T16:55:57.515Z,5.93
2023-02-06T16:58:49.746Z,4.45
2023-02-06T17:04:45.015Z,6.53
2023-02-06T17:07:26.612Z,5.15
2023-02-06T17:10:01.647Z,6.43
2023-02-06T17:12:33.367Z,4.78
2023-02-06T17:15:04.766Z,5.10
2023-02-06T17:17:35.759Z,5.32
2023-02-06T17:20:07.766Z,5.22
2023-02-06T17:22:39.018Z,5.78
2023-02-06T17:25:10.458Z,6.07
2023-02-06T17:27:41.530Z,5.50
2023-02-06T17:30:24.413Z,5.40
2023-02-06T17:32:57.164Z,4.15
2023-02-06T17:35:28.873Z,5.53
2023-02-06T17:38:12.285Z,5.47
2023-02-06T17:41:03.488Z,5.25
2023-02-06T17:43:37.770Z,5.05
2023-02-06T17:46:09.405Z,5.32
2023-02-06T17:48:44.109Z,4.80
2023-02-06T17:51:15.539Z,5.40
2023-02-06T17:53:46.760Z,5.13
2023-02-06T17:56:18.273Z,3.60
2023-02-06T17:58:49.626Z,5.00
2023-02-06T18:01:25.630Z,3.58
2023-02-06T18:03:56.940Z,4.95
2023-02-06T18:06:28.287Z,4.07
2023-02-06T18:08:59.518Z,4.60
2023-02-06T18:11:31.126Z,5.57
2023-02-06T18:14:02.206Z,3.92
2023-02-06T18:16:33.793Z,3.70
2023-02-06T18:19:05.759Z,3.85
2023-02-06T18:21:36.834Z,4.35
2023-02-06T18:24:08.804Z,4.57
2023-02-06T18:26:39.860Z,4.85
2023-02-06T18:29:11.189Z,5.50
2023-02-06T18:31:44.632Z,3.53
2023-02-06T18:34:15.596Z,5.38
2023-02-06T18:37:15.396Z,5.28
2023-02-06T18:40:06.611Z,4.63
2023-02-06T18:42:57.210Z,3.90
2023-02-06T18:45:52.872Z,4.22
2023-02-06T18:48:23.808Z,3.70
2023-02-06T18:50:58.136Z,4.68
2023-02-06T18:53:29.602Z,3.90
2023-02-06T18:58:47.291Z,3.92
2023-02-06T19:01:22.164Z,4.32
2023-02-06T19:03:54.129Z,4.72
2023-02-06T19:06:33.262Z,4.15
2023-02-06T19:09:09.458Z,5.32
2023-02-06T19:12:00.391Z,3.63
2023-02-06T19:14:31.260Z,3.20
2023-02-06T19:17:02.429Z,4.00
2023-02-06T19:19:33.324Z,3.65
2023-02-06T19:22:04.019Z,4.65
2023-02-06T19:24:35.174Z,4.43
2023-02-06T19:27:06.304Z,3.88
2023-02-06T19:29:37.747Z,2.92
2023-02-06T19:32:10.182Z,3.13
2023-02-06T19:34:43.546Z,4.57
2023-02-06T19:37:14.938Z,4.53
2023-02-06T19:39:46.022Z,4.88
2023-02-06T19:42:54.199Z,3.55
2023-02-06T19:45:37.914Z,3.45
2023-02-06T19:48:30.401Z,3.45
2023-02-06T19:51:13.124Z,5.40
2023-02-06T19:53:48.570Z,4.72
2023-02-06T19:56:25.931Z,4.32
2023-02-06T19:59:01.482Z,3.83
2023-02-06T20:01:33.550Z,3.58
2023-02-06T20:04:05.102Z,4.13
2023-02-06T20:06:38.437Z,3.67
2023-02-06T20:11:56.556Z,4.22
2023-02-06T20:14:34.376Z,3.45
2023-02-06T20:17:05.457Z,3.50
2023-02-06T20:19:36.526Z,3.72
2023-02-06T20:22:30.276Z,4.95
2023-02-06T20:25:01.173Z,3.87
2023-02-06T20:27:32.117Z,4.00
2023-02-06T20:30:04.437Z,4.72
2023-02-06T20:32:35.515Z,3.00
2023-02-06T20:35:06.686Z,4.07
2023-02-06T20:37:38.355Z,4.28
2023-02-06T20:40:09.558Z,3.42
2023-02-06T20:42:46.012Z,3.03
2023-02-06T20:45:17.151Z,3.30
2023-02-06T20:47:47.808Z,3.10
2023-02-06T20:50:18.754Z,3.17
2023-02-06T20:52:49.529Z,3.17
2023-02-06T20:55:20.713Z,3.22
2023-02-06T20:57:51.390Z,2.95
2023-02-06T21:00:22.410Z,3.63
2023-02-06T21:03:17.258Z,3.13
2023-02-06T21:05:58.355Z,3.45
2023-02-06T21:08:30.366Z,4.38
2023-02-06T21:11:01.220Z,3.28
2023-02-06T21:13:32.419Z,2.72
2023-02-06T21:16:06.951Z,3.45
2023-02-06T21:18:38.087Z,3.00
2023-02-06T21:21:13.238Z,3.55
2023-02-06T21:26:25.370Z,3.00
2023-02-06T21:28:57.424Z,3.10
2023-02-06T21:31:37.512Z,5.03
2023-02-06T21:34:23.002Z,3.80
2023-02-06T21:39:42.643Z,3.55
2023-02-06T21:42:34.901Z,3.45
2023-02-06T21:45:06.373Z,3.03
2023-02-06T21:47:38.143Z,3.58
2023-02-06T21:52:54.807Z,3.03
2023-02-06T21:55:26.890Z,2.83
2023-02-06T21:57:57.963Z,2.80
2023-02-06T22:00:33.523Z,3.13
2023-02-06T22:03:05.519Z,2.95
2023-02-06T22:05:36.818Z,3.28
2023-02-06T22:08:08.186Z,2.95
2023-02-06T22:10:40.017Z,2.85
2023-02-06T22:13:32.216Z,3.45
2023-02-06T22:16:03.279Z,3.40
2023-02-06T22:18:55.351Z,3.13
2023-02-06T22:21:29.564Z,2.90
2023-02-06T22:24:25.983Z,2.83
2023-02-06T22:26:56.904Z,2.78
2023-02-06T22:32:41.041Z,3.40
2023-02-06T23:16:07.463Z,4.23
2023-02-06T23:18:38.859Z,3.28
2023-02-06T23:21:12.316Z,2.88
2023-02-06T23:24:13.145Z,2.30
2023-02-06T23:26:47.270Z,2.80
2023-02-06T23:55:14.205Z,3.83
2023-02-06T23:57:45.131Z,2.72
